Edgeley, North Dakota
Current Conditions -  °F | °C
As of 10:56 AM on Monday 22 Dec 2014 (Local Time) from KJMS Reporting Station
Moderate Fog Moderate Fog  
Wind Chill: 26°   Ceiling: 200
Heat Index: 33°   Visibility: 0mi
Dew Point: 32°   Wind: 8mph
Humidity: 96%   Direction: 60°ENE
Pressure: 29.46"   Gusts: NA
Location:  46.36°N, 98.72°W
Report Text: KJMS 221656Z AUTO 06007KT M1/4SM FG VV002 01/00 A2946 RMK AO2 SLP993 T00060000
Loading
Personal Weather Stations






























Interactive Weather Map New forecast layout! Learn more

10-Day Weather Forecast

Advertisements
Track Severe Weather on mobile